Terminal Aerodrome Forecast
Issued by NWS

Home | Current Version | Previous Version | Text Only | Print | Product List | Glossary On
Versions: 1 2 3 4 5 6 7 8 9 10 11 12 13 14 15 16 17 18 19 20 21 22
000
FTUS43 KDLH 030812 RRA
TAFBRD
TAF
KBRD 030812Z 0308/0406 VRB03KT P6SM SCT080
     FM031700 27011KT P6SM BKN070
      TEMPO 0318/0321 6SM TSRA BR BKN035CB
     FM032200 30008KT P6SM BKN060
     FM040200 VRB03KT P6SM SCT060=

USA.gov is the U.S. government's official web portal to all federal, state and local government web resources and services.